createdAt,value
2023-05-15T00:00:44.613Z,44.29
2023-05-15T00:03:47.754Z,44.49
2023-05-15T00:06:53.416Z,44.20
2023-05-15T00:09:56.493Z,44.00
2023-05-15T00:12:59.536Z,44.38
2023-05-15T00:16:02.582Z,43.96
2023-05-15T00:19:05.765Z,43.86
2023-05-15T00:22:10.322Z,44.19
2023-05-15T00:25:13.345Z,44.37
2023-05-15T00:28:16.508Z,44.55
2023-05-15T00:31:19.750Z,44.15
2023-05-15T00:34:23.010Z,44.29
2023-05-15T00:37:27.567Z,44.17
2023-05-15T00:40:31.440Z,44.09
2023-05-15T00:43:35.023Z,44.05
2023-05-15T00:46:39.615Z,43.87
2023-05-15T00:49:44.579Z,44.06
2023-05-15T00:52:49.904Z,44.39
2023-05-15T00:55:53.636Z,44.04
2023-05-15T00:58:59.811Z,44.34
2023-05-15T01:02:02.932Z,44.19
2023-05-15T01:05:07.563Z,44.00
2023-05-15T01:08:22.728Z,44.00
2023-05-15T01:11:35.689Z,44.44
2023-05-15T01:14:38.843Z,43.91
2023-05-15T01:17:42.191Z,43.74
2023-05-15T01:21:03.244Z,44.08
2023-05-15T01:24:28.463Z,43.84
2023-05-15T01:27:37.897Z,44.31
2023-05-15T01:30:44.282Z,44.13
2023-05-15T01:33:52.445Z,43.90
2023-05-15T01:37:01.358Z,44.24
2023-05-15T01:40:07.945Z,44.35
2023-05-15T01:43:16.708Z,44.28
2023-05-15T01:46:23.281Z,43.72
2023-05-15T01:49:29.621Z,43.93
2023-05-15T01:52:36.330Z,44.07
2023-05-15T01:55:41.357Z,43.96
2023-05-15T01:58:46.456Z,44.13
2023-05-15T02:01:51.143Z,43.74
2023-05-15T02:04:55.111Z,44.02
2023-05-15T02:07:58.388Z,43.79
2023-05-15T02:11:04.024Z,43.62
2023-05-15T02:14:10.102Z,43.90
2023-05-15T02:17:13.356Z,44.28
2023-05-15T02:20:16.545Z,43.90
2023-05-15T02:23:20.626Z,44.26
2023-05-15T02:26:32.872Z,44.07
2023-05-15T02:29:48.737Z,44.12
2023-05-15T02:33:01.020Z,43.87
2023-05-15T02:36:08.187Z,43.98
2023-05-15T02:39:12.985Z,43.85
2023-05-15T02:42:16.947Z,43.97
2023-05-15T02:45:23.580Z,44.00
2023-05-15T02:48:27.898Z,43.99
2023-05-15T02:51:31.287Z,44.26
2023-05-15T02:54:34.447Z,43.89
2023-05-15T02:57:37.678Z,43.72
2023-05-15T03:00:42.285Z,43.89
2023-05-15T03:03:45.409Z,43.76
2023-05-15T03:06:48.689Z,43.89
2023-05-15T03:09:51.807Z,43.92
2023-05-15T03:12:58.579Z,44.01
2023-05-15T03:16:03.133Z,44.11
2023-05-15T03:19:06.396Z,44.01
2023-05-15T03:22:09.545Z,44.20
2023-05-15T03:25:12.875Z,44.11
2023-05-15T03:28:16.149Z,44.49
2023-05-15T03:31:20.939Z,44.36
2023-05-15T03:34:24.146Z,43.93
2023-05-15T03:37:27.265Z,44.00
2023-05-15T03:40:30.818Z,44.02
2023-05-15T03:43:33.976Z,43.84
2023-05-15T03:46:38.602Z,44.12
2023-05-15T03:49:41.746Z,44.15
2023-05-15T03:52:44.966Z,44.63
2023-05-15T03:55:48.406Z,44.65
2023-05-15T03:58:51.535Z,44.82
2023-05-15T04:05:07.018Z,44.78
2023-05-15T04:08:11.115Z,46.27
2023-05-15T04:11:14.434Z,45.28
2023-05-15T04:14:17.546Z,45.07
2023-05-15T04:17:22.044Z,45.98
2023-05-15T04:20:26.206Z,45.96
2023-05-15T04:23:29.303Z,45.89
2023-05-15T04:26:32.454Z,45.72
2023-05-15T04:29:35.530Z,45.75
2023-05-15T04:32:40.325Z,45.60
2023-05-15T04:35:43.621Z,45.72
2023-05-15T04:38:46.730Z,45.24
2023-05-15T04:41:49.969Z,45.38
2023-05-15T04:44:53.087Z,45.55
2023-05-15T04:47:57.535Z,45.47
2023-05-15T04:51:00.748Z,45.37
2023-05-15T04:54:04.711Z,45.41
2023-05-15T04:57:07.861Z,44.77
2023-05-15T05:00:12.561Z,45.46
2023-05-15T05:03:17.191Z,44.84
2023-05-15T05:06:20.247Z,45.20
2023-05-15T05:09:23.359Z,45.00
2023-05-15T05:12:28.059Z,44.92
2023-05-15T05:18:35.558Z,45.00
2023-05-15T05:21:38.728Z,45.21
2023-05-15T05:24:41.823Z,44.65
2023-05-15T05:27:44.940Z,44.87
2023-05-15T05:33:52.916Z,44.98
2023-05-15T05:36:56.044Z,44.89
2023-05-15T05:39:59.034Z,44.83
2023-05-15T05:49:09.464Z,44.78
2023-05-15T05:52:13.038Z,44.33
2023-05-15T05:55:16.260Z,44.64
2023-05-15T05:58:25.481Z,44.47
2023-05-15T06:01:29.375Z,44.75
2023-05-15T06:04:34.575Z,44.80
2023-05-15T06:07:37.816Z,44.78
2023-05-15T06:10:42.573Z,44.68
2023-05-15T06:13:45.674Z,44.60
2023-05-15T06:16:48.832Z,44.39
2023-05-15T06:19:53.284Z,44.58
2023-05-15T06:22:56.645Z,44.75
2023-05-15T06:25:59.779Z,44.58
2023-05-15T06:29:02.809Z,44.24
2023-05-15T06:32:06.696Z,44.31
2023-05-15T06:35:12.044Z,44.18
2023-05-15T06:38:15.232Z,44.80
2023-05-15T06:41:18.305Z,45.00
2023-05-15T06:44:22.591Z,44.89
2023-05-15T06:47:26.739Z,45.19
2023-05-15T06:50:31.310Z,44.85
2023-05-15T06:53:34.626Z,44.78
2023-05-15T06:56:37.838Z,44.45
2023-05-15T06:59:40.967Z,44.79
2023-05-15T07:02:44.438Z,44.75
2023-05-15T07:05:49.097Z,44.25
2023-05-15T07:08:52.171Z,44.23
2023-05-15T07:11:55.180Z,44.62
2023-05-15T07:14:58.330Z,44.22
2023-05-15T07:18:01.555Z,44.21
2023-05-15T07:21:06.654Z,44.72
2023-05-15T07:24:09.941Z,44.11
2023-05-15T07:27:12.987Z,44.22
2023-05-15T07:30:16.757Z,44.46
2023-05-15T07:33:20.046Z,44.10
2023-05-15T07:36:24.566Z,45.90
2023-05-15T07:39:27.666Z,45.11
2023-05-15T07:42:30.877Z,44.39
2023-05-15T07:45:34.058Z,44.79
2023-05-15T07:48:37.176Z,44.71
2023-05-15T07:51:42.848Z,44.64
2023-05-15T07:54:45.975Z,44.87
2023-05-15T07:57:53.546Z,44.51
2023-05-15T08:00:56.979Z,44.49
2023-05-15T08:04:00.565Z,44.52
2023-05-15T08:07:05.746Z,44.87
2023-05-15T08:10:09.853Z,44.51
2023-05-15T08:13:12.949Z,44.44
2023-05-15T08:16:16.082Z,44.59
2023-05-15T08:19:19.475Z,44.44
2023-05-15T08:22:24.118Z,44.49
2023-05-15T08:25:27.500Z,44.53
2023-05-15T08:28:30.988Z,44.56
2023-05-15T08:31:34.147Z,44.44
2023-05-15T08:34:37.351Z,44.38
2023-05-15T08:37:42.038Z,43.91
2023-05-15T08:40:48.363Z,44.23
2023-05-15T08:43:54.475Z,43.90
2023-05-15T08:46:59.677Z,44.50
2023-05-15T08:50:08.315Z,44.50
2023-05-15T08:53:14.017Z,44.38
2023-05-15T08:56:17.699Z,44.36
2023-05-15T08:59:21.417Z,44.20
2023-05-15T09:02:26.455Z,44.15
2023-05-15T09:05:37.381Z,43.91
2023-05-15T09:08:45.462Z,44.22
2023-05-15T09:11:50.025Z,44.15
2023-05-15T09:14:53.584Z,44.19
2023-05-15T09:17:57.451Z,44.33
2023-05-15T09:21:23.426Z,44.32
2023-05-15T09:24:29.313Z,44.05
2023-05-15T09:27:41.905Z,44.30
2023-05-15T09:30:45.086Z,44.09
2023-05-15T09:33:48.207Z,44.03
2023-05-15T09:36:51.602Z,44.09
2023-05-15T09:39:56.379Z,44.26
2023-05-15T09:42:59.912Z,44.07
2023-05-15T09:46:03.258Z,44.11
2023-05-15T09:49:06.830Z,44.41
2023-05-15T09:52:10.880Z,44.08
2023-05-15T09:55:19.636Z,44.04
2023-05-15T09:58:23.555Z,43.90
2023-05-15T10:01:27.649Z,44.41
2023-05-15T10:04:36.917Z,44.23
2023-05-15T10:07:40.152Z,43.89
2023-05-15T10:10:46.579Z,44.18
2023-05-15T10:13:50.104Z,44.28
2023-05-15T10:16:54.500Z,44.21
2023-05-15T10:20:00.048Z,44.32
2023-05-15T10:23:05.670Z,44.28
2023-05-15T10:26:17.303Z,44.31
2023-05-15T10:29:24.249Z,44.29
2023-05-15T10:32:27.905Z,44.21
2023-05-15T10:35:32.008Z,44.33
2023-05-15T10:38:37.255Z,44.41
2023-05-15T10:41:41.924Z,43.98
2023-05-15T10:44:45.019Z,43.96
2023-05-15T10:47:48.982Z,44.08
2023-05-15T10:50:52.674Z,44.37
2023-05-15T10:53:57.779Z,43.60
2023-05-15T10:57:02.458Z,44.04
2023-05-15T11:00:31.421Z,44.25
2023-05-15T11:03:48.820Z,44.27
2023-05-15T11:07:13.574Z,43.95
2023-05-15T11:10:38.576Z,44.13
2023-05-15T11:14:15.538Z,44.21
2023-05-15T11:17:19.375Z,44.11
2023-05-15T11:20:35.170Z,43.95
2023-05-15T11:23:41.392Z,44.14
2023-05-15T11:26:44.564Z,44.46
2023-05-15T11:30:15.394Z,44.24
2023-05-15T11:33:18.540Z,44.35
2023-05-15T11:36:25.383Z,44.28
2023-05-15T11:39:29.369Z,43.95
2023-05-15T11:42:33.518Z,44.08
2023-05-15T11:45:39.670Z,44.41
2023-05-15T11:48:44.410Z,44.32
2023-05-15T11:51:49.910Z,44.38
2023-05-15T11:54:53.896Z,44.16
2023-05-15T11:57:57.015Z,44.15
2023-05-15T12:01:01.572Z,43.84
2023-05-15T12:04:13.710Z,43.89
2023-05-15T12:07:17.238Z,43.65
2023-05-15T12:10:20.418Z,43.90
2023-05-15T12:13:23.558Z,44.12
2023-05-15T12:16:28.816Z,44.21
2023-05-15T12:19:32.133Z,44.14
2023-05-15T12:22:38.193Z,44.02
2023-05-15T12:25:41.568Z,44.18
2023-05-15T12:28:45.530Z,44.14
2023-05-15T12:31:54.227Z,44.14
2023-05-15T12:34:58.167Z,44.10
2023-05-15T12:38:01.490Z,44.03
2023-05-15T12:41:04.722Z,43.72
2023-05-15T12:44:07.986Z,44.34
2023-05-15T12:47:15.731Z,43.63
2023-05-15T12:50:20.422Z,44.06
2023-05-15T12:53:23.565Z,44.23
2023-05-15T12:56:26.768Z,43.86
2023-05-15T12:59:31.079Z,44.18
2023-05-15T13:02:35.869Z,43.85
2023-05-15T13:05:40.246Z,44.03
2023-05-15T13:08:45.140Z,43.89
2023-05-15T13:11:48.946Z,43.99
2023-05-15T13:14:51.997Z,43.96
2023-05-15T13:18:00.992Z,43.70
2023-05-15T13:21:04.208Z,44.27
2023-05-15T13:24:10.065Z,43.70
2023-05-15T13:27:13.206Z,43.93
2023-05-15T13:30:17.440Z,44.25
2023-05-15T13:33:21.958Z,43.99
2023-05-15T13:36:25.072Z,44.22
2023-05-15T13:39:28.225Z,44.32
2023-05-15T13:42:31.326Z,43.97
2023-05-15T13:45:34.629Z,44.18
2023-05-15T13:48:39.149Z,43.77
2023-05-15T13:51:42.388Z,44.18
2023-05-15T13:54:45.563Z,44.16
2023-05-15T13:57:48.707Z,44.35
2023-05-15T14:00:51.862Z,44.32
2023-05-15T14:03:56.907Z,43.90
2023-05-15T14:07:00.072Z,44.07
2023-05-15T14:10:03.772Z,44.33
2023-05-15T14:13:06.985Z,43.89
2023-05-15T14:16:10.260Z,43.94
2023-05-15T14:19:14.911Z,44.27
2023-05-15T14:22:18.013Z,44.16
2023-05-15T14:25:21.190Z,44.31
2023-05-15T14:28:24.408Z,44.15
2023-05-15T14:31:27.609Z,44.38
2023-05-15T14:34:32.569Z,43.96
2023-05-15T14:37:35.766Z,44.31
2023-05-15T14:40:39.011Z,43.85
2023-05-15T14:43:42.233Z,44.14
2023-05-15T14:46:45.587Z,43.62
2023-05-15T14:49:50.214Z,44.13
2023-05-15T14:52:53.340Z,44.01
2023-05-15T14:55:58.589Z,43.97
2023-05-15T14:59:01.708Z,43.87
2023-05-15T15:02:04.989Z,44.09
2023-05-15T15:05:10.798Z,44.11
2023-05-15T15:08:14.037Z,43.94
2023-05-15T15:11:17.239Z,45.20
2023-05-15T15:14:20.372Z,45.26
2023-05-15T15:17:23.728Z,45.66
2023-05-15T15:20:29.218Z,45.80
2023-05-15T15:23:32.329Z,47.04
2023-05-15T15:26:35.522Z,46.77
2023-05-15T15:29:38.583Z,46.83
2023-05-15T15:32:42.368Z,46.99
2023-05-15T15:35:47.140Z,48.59
2023-05-15T15:38:50.185Z,48.81
2023-05-15T15:41:54.523Z,48.59
2023-05-15T15:44:57.886Z,47.95
2023-05-15T15:48:01.117Z,48.93
2023-05-15T15:51:06.665Z,48.72
2023-05-15T15:54:09.732Z,49.14
2023-05-15T15:57:13.114Z,49.16
2023-05-15T16:00:17.489Z,49.20
2023-05-15T16:03:20.810Z,49.81
2023-05-15T16:06:25.520Z,49.70
2023-05-15T16:09:28.541Z,49.44
2023-05-15T16:12:34.032Z,50.04
2023-05-15T16:15:37.185Z,50.33
2023-05-15T16:18:40.350Z,50.36
2023-05-15T16:21:45.166Z,49.77
2023-05-15T16:24:48.468Z,50.01
2023-05-15T16:27:51.739Z,49.51
2023-05-15T16:30:56.549Z,50.00
2023-05-15T16:34:03.529Z,49.70
2023-05-15T16:37:08.533Z,49.16
2023-05-15T16:40:12.472Z,49.63
2023-05-15T16:43:15.690Z,49.01
2023-05-15T16:46:19.055Z,49.07
2023-05-15T16:49:22.267Z,49.48
2023-05-15T16:52:26.956Z,49.60
2023-05-15T16:55:30.912Z,49.79
2023-05-15T16:58:34.048Z,49.54
2023-05-15T17:01:37.226Z,49.67
2023-05-15T17:04:40.619Z,49.13
2023-05-15T17:07:45.542Z,49.72
2023-05-15T17:10:48.687Z,49.99
2023-05-15T17:13:51.873Z,49.86
2023-05-15T17:16:55.204Z,50.04
2023-05-15T17:19:59.340Z,50.07
2023-05-15T17:23:05.034Z,50.03
2023-05-15T17:26:08.256Z,49.93
2023-05-15T17:29:11.648Z,49.72
2023-05-15T17:32:15.932Z,50.14
2023-05-15T17:35:19.323Z,49.93
2023-05-15T17:38:23.820Z,50.21
2023-05-15T17:41:27.100Z,49.68
2023-05-15T17:44:31.228Z,49.54
2023-05-15T17:47:34.422Z,49.42
2023-05-15T17:50:39.141Z,49.35
2023-05-15T17:53:43.852Z,49.50
2023-05-15T17:59:49.974Z,49.56
2023-05-15T18:02:53.208Z,49.16
2023-05-15T18:05:56.504Z,49.44
2023-05-15T18:09:01.233Z,49.16
2023-05-15T18:12:04.424Z,49.44
2023-05-15T18:15:08.451Z,49.31
2023-05-15T18:18:11.671Z,49.13
2023-05-15T18:21:15.398Z,48.70
2023-05-15T18:24:19.886Z,49.01
2023-05-15T18:27:22.981Z,49.43
2023-05-15T18:30:26.090Z,49.26
2023-05-15T18:33:29.330Z,49.82
2023-05-15T18:36:32.417Z,48.99
2023-05-15T18:39:38.025Z,46.75
2023-05-15T18:42:41.110Z,44.82
2023-05-15T18:45:44.172Z,44.74
2023-05-15T18:48:47.326Z,43.99
2023-05-15T18:51:50.423Z,43.42
2023-05-15T18:54:55.154Z,43.77
2023-05-15T18:57:58.303Z,43.36
2023-05-15T19:01:01.548Z,42.58
2023-05-15T19:04:04.944Z,42.40
2023-05-15T19:07:08.898Z,41.95
2023-05-15T19:10:13.578Z,42.17
2023-05-15T19:13:16.749Z,41.92
2023-05-15T19:16:20.060Z,42.21
2023-05-15T19:19:23.314Z,42.30
2023-05-15T19:22:26.605Z,42.23
2023-05-15T19:25:31.206Z,42.36
2023-05-15T19:28:34.544Z,42.26
2023-05-15T19:31:38.807Z,42.17
2023-05-15T19:34:42.011Z,42.60
2023-05-15T19:37:45.341Z,44.80
2023-05-15T19:40:49.789Z,46.01
2023-05-15T19:43:52.937Z,46.35
2023-05-15T19:46:56.042Z,46.54
2023-05-15T19:49:59.209Z,46.21
2023-05-15T19:53:02.345Z,46.61
2023-05-15T19:56:07.453Z,46.24
2023-05-15T19:59:10.757Z,46.19
2023-05-15T20:02:13.837Z,46.63
2023-05-15T20:05:17.038Z,46.88
2023-05-15T20:08:20.250Z,47.09
2023-05-15T20:11:24.962Z,47.10
2023-05-15T20:14:28.028Z,47.05
2023-05-15T20:17:31.041Z,47.36
2023-05-15T20:20:34.088Z,47.11
2023-05-15T20:23:37.140Z,47.89
2023-05-15T20:26:41.906Z,47.65
2023-05-15T20:29:45.577Z,47.23
2023-05-15T20:32:48.738Z,47.46
2023-05-15T20:35:53.343Z,48.01
2023-05-15T20:38:56.821Z,47.89
2023-05-15T20:42:01.645Z,47.47
2023-05-15T20:45:05.321Z,47.77
2023-05-15T20:48:09.012Z,47.76
2023-05-15T20:51:12.141Z,47.82
2023-05-15T20:54:15.282Z,47.87
2023-05-15T20:57:19.753Z,48.11
2023-05-15T21:00:22.942Z,47.81
2023-05-15T21:03:26.124Z,47.95
2023-05-15T21:06:29.335Z,47.67
2023-05-15T21:09:32.617Z,48.13
2023-05-15T21:12:37.244Z,47.81
2023-05-15T21:15:40.318Z,47.78
2023-05-15T21:18:43.541Z,47.94
2023-05-15T21:21:46.790Z,48.09
2023-05-15T21:24:49.834Z,47.96
2023-05-15T21:27:54.334Z,48.07
2023-05-15T21:30:57.389Z,48.57
2023-05-15T21:34:00.556Z,48.18
2023-05-15T21:37:03.857Z,48.03
2023-05-15T21:40:07.982Z,48.15
2023-05-15T21:43:12.542Z,48.16
2023-05-15T21:46:15.652Z,48.13
2023-05-15T21:49:18.692Z,48.27
2023-05-15T21:52:21.826Z,48.39
2023-05-15T21:55:24.867Z,48.28
2023-05-15T21:58:30.261Z,48.47
2023-05-15T22:01:33.542Z,48.27
2023-05-15T22:04:36.919Z,48.34
2023-05-15T22:07:40.290Z,48.15
2023-05-15T22:10:43.675Z,48.18
2023-05-15T22:13:48.160Z,48.51
2023-05-15T22:16:51.291Z,48.52
2023-05-15T22:19:54.599Z,48.52
2023-05-15T22:23:01.012Z,48.55
2023-05-15T22:26:04.251Z,48.00
2023-05-15T22:29:09.038Z,48.19
2023-05-15T22:32:12.195Z,48.12
2023-05-15T22:35:15.278Z,48.32
2023-05-15T22:38:18.364Z,48.35
2023-05-15T22:41:21.763Z,48.51
2023-05-15T22:44:26.297Z,48.16
2023-05-15T22:47:29.437Z,48.39
2023-05-15T22:50:32.754Z,48.06
2023-05-15T22:53:35.960Z,47.96
2023-05-15T22:56:39.022Z,48.31
2023-05-15T22:59:43.447Z,48.03
2023-05-15T23:02:46.516Z,48.38
2023-05-15T23:05:49.782Z,48.16
2023-05-15T23:08:52.978Z,48.11
2023-05-15T23:11:55.990Z,47.68
2023-05-15T23:15:00.707Z,47.49
2023-05-15T23:18:03.775Z,47.80
2023-05-15T23:21:06.823Z,47.65
2023-05-15T23:24:09.947Z,47.75
2023-05-15T23:27:14.372Z,47.99
2023-05-15T23:30:19.381Z,48.31
2023-05-15T23:33:22.697Z,47.97
2023-05-15T23:36:25.867Z,47.89
2023-05-15T23:39:28.917Z,47.57
2023-05-15T23:42:32.053Z,47.97
2023-05-15T23:45:36.614Z,47.69
2023-05-15T23:48:39.703Z,47.53
2023-05-15T23:51:43.905Z,48.01
2023-05-15T23:54:46.883Z,47.28
2023-05-15T23:57:50.170Z,47.68
